AUA839 LOWW-OMDB
Flight info
| Callsign | AUA839 |
|---|---|
| Flight time | N/A |
| Altitude | 37000 |
| Route | ARSIN1C ARSIN DCT NALOX DCT BABIT DCT RISTU DCT INRES DCT GINAM DCT IBISI DCT RUGAS DCT GIKAS DCT MES UL609 RDS/N0474F390 DCT VANZA DCT LAKTO L560 SERMA L550 KARIK B411 DEESA Y415 NIMAR G662 KSA M321 RESAL T533 RAPMA DCT KUVSO DCT RIBOT M550 GOLGU DCT UKRAG G783 ASPED Q308 KIPOK Q568 IMPED DCT |
| Aircraft | A343/H-SDE2E3FGHIJ4J5M1RWXY/LB1D1 |
Departure
| Time | 2026-04-22 09:48 |
|---|---|
| Airport | Vienna International Airport (LOWW) |
Arrival
| Time | N/A |
|---|---|
| Airport | Dubai International Airport (OMDB) |
| Time | Latitude | Longitude | Altitude | Speed | Heading |
|---|---|---|---|---|---|
| 2026-04-22 09:12 | 48.11818 | 16.57047 | 629 ft | 0 kts | 206° |
| 2026-04-22 09:34 | 48.11826 | 16.57052 | 614 ft | 4 kts | 204° |
| 2026-04-22 09:35 | 48.11878 | 16.57070 | 628 ft | 4 kts | 174° |
| 2026-04-22 09:35 | 48.11902 | 16.57060 | 628 ft | 4 kts | 136° |
| 2026-04-22 09:35 | 48.11909 | 16.57049 | 624 ft | 3 kts | 116° |
| 2026-04-22 09:44 | 48.11896 | 16.57087 | 627 ft | 10 kts | 116° |
| 2026-04-22 09:44 | 48.11849 | 16.57225 | 622 ft | 20 kts | 116° |
| 2026-04-22 09:44 | 48.11752 | 16.57376 | 622 ft | 21 kts | 163° |
| 2026-04-22 09:44 | 48.11611 | 16.57430 | 623 ft | 21 kts | 165° |
| 2026-04-22 09:45 | 48.11474 | 16.57446 | 614 ft | 20 kts | 202° |
| 2026-04-22 09:45 | 48.11350 | 16.57358 | 627 ft | 20 kts | 206° |
| 2026-04-22 09:45 | 48.11231 | 16.57280 | 624 ft | 13 kts | 177° |
| 2026-04-22 09:45 | 48.11180 | 16.57369 | 630 ft | 14 kts | 117° |
| 2026-04-22 09:46 | 48.11122 | 16.57543 | 627 ft | 20 kts | 116° |
| 2026-04-22 09:46 | 48.11033 | 16.57638 | 625 ft | 16 kts | 194° |
| 2026-04-22 09:46 | 48.10933 | 16.57528 | 625 ft | 16 kts | 244° |
| 2026-04-22 09:46 | 48.10952 | 16.57421 | 630 ft | 10 kts | 296° |
| 2026-04-22 09:47 | 48.11017 | 16.57217 | 622 ft | 45 kts | 295° |
| 2026-04-22 09:47 | 48.11234 | 16.56551 | 626 ft | 95 kts | 296° |
| 2026-04-22 09:47 | 48.11589 | 16.55462 | 627 ft | 136 kts | 296° |
| 2026-04-22 09:47 | 48.12045 | 16.54040 | 720 ft | 161 kts | 297° |
| 2026-04-22 09:48 | 48.12492 | 16.52519 | 1245 ft | 160 kts | 299° |
| 2026-04-22 09:48 | 48.12515 | 16.50762 | 1552 ft | 186 kts | 248° |
| 2026-04-22 09:48 | 48.11561 | 16.49454 | 2067 ft | 196 kts | 205° |
| 2026-04-22 09:48 | 48.10223 | 16.48692 | 2342 ft | 218 kts | 203° |
| 2026-04-22 09:49 | 48.08741 | 16.47718 | 2610 ft | 244 kts | 204° |
| 2026-04-22 09:49 | 48.07020 | 16.47175 | 2985 ft | 267 kts | 177° |
| 2026-04-22 09:49 | 48.05164 | 16.47492 | 3831 ft | 269 kts | 171° |
| 2026-04-22 09:49 | 48.03302 | 16.47911 | 4726 ft | 272 kts | 171° |
| 2026-04-22 09:50 | 48.01407 | 16.48311 | 5539 ft | 278 kts | 171° |
| 2026-04-22 09:50 | 47.99478 | 16.48696 | 6440 ft | 282 kts | 172° |
| 2026-04-22 09:50 | 47.97518 | 16.48906 | 7306 ft | 284 kts | 183° |
| 2026-04-22 09:50 | 47.95600 | 16.48169 | 8105 ft | 287 kts | 203° |
| 2026-04-22 09:51 | 47.93640 | 16.47523 | 8796 ft | 293 kts | 175° |
| 2026-04-22 09:51 | 47.91717 | 16.48353 | 9699 ft | 287 kts | 151° |
| 2026-04-22 09:51 | 47.89949 | 16.49761 | 10450 ft | 291 kts | 148° |
| 2026-04-22 09:51 | 47.88118 | 16.51265 | 10811 ft | 310 kts | 148° |
| 2026-04-22 09:52 | 47.86162 | 16.52833 | 11058 ft | 329 kts | 150° |
| 2026-04-22 09:52 | 47.84086 | 16.54462 | 11334 ft | 346 kts | 149° |
| 2026-04-22 09:52 | 47.81916 | 16.56143 | 11770 ft | 357 kts | 150° |
| 2026-04-22 09:52 | 47.79701 | 16.57842 | 12505 ft | 359 kts | 150° |
| 2026-04-22 09:53 | 47.77547 | 16.59745 | 13204 ft | 361 kts | 141° |
| 2026-04-22 09:53 | 47.75541 | 16.62031 | 13890 ft | 364 kts | 137° |
| 2026-04-22 09:53 | 47.73591 | 16.64456 | 14519 ft | 367 kts | 136° |
| 2026-04-22 09:53 | 47.71661 | 16.66977 | 15115 ft | 371 kts | 135° |
| 2026-04-22 09:54 | 47.69736 | 16.69550 | 15726 ft | 375 kts | 135° |
| 2026-04-22 09:54 | 47.67792 | 16.72161 | 16355 ft | 379 kts | 135° |
| 2026-04-22 09:54 | 47.65828 | 16.74793 | 16978 ft | 382 kts | 135° |
| 2026-04-22 09:54 | 47.63840 | 16.77441 | 17588 ft | 386 kts | 135° |
| 2026-04-22 09:55 | 47.61829 | 16.80105 | 18197 ft | 389 kts | 135° |
| 2026-04-22 09:55 | 47.59796 | 16.82787 | 18741 ft | 393 kts | 135° |
| 2026-04-22 09:55 | 47.57749 | 16.85480 | 19276 ft | 395 kts | 135° |
| 2026-04-22 09:55 | 47.55682 | 16.88194 | 19796 ft | 398 kts | 135° |
| 2026-04-22 09:56 | 47.53608 | 16.90913 | 20330 ft | 400 kts | 135° |
| 2026-04-22 09:56 | 47.51516 | 16.93653 | 20845 ft | 403 kts | 135° |
| 2026-04-22 09:56 | 47.49411 | 16.96409 | 21339 ft | 405 kts | 135° |
| 2026-04-22 09:56 | 47.47291 | 16.99181 | 21827 ft | 408 kts | 135° |
| 2026-04-22 09:57 | 47.45157 | 17.01970 | 22296 ft | 410 kts | 135° |
| 2026-04-22 09:57 | 47.43014 | 17.04767 | 22789 ft | 413 kts | 135° |
| 2026-04-22 09:57 | 47.40855 | 17.07582 | 23248 ft | 415 kts | 135° |